Strona główna
METAR-TAF:

METAR-TAF

Lotnisko :

Port lotniczy Nadżran

Nadżran, Arabia Saudyjska

Szerokość geograficzna: 17-37N, Długość geograficzna: 044-25E, wysokość: 1212 m

Aktualna obserwacja pogody

Raport powstał 26 minut temu, godzina 21:00 UTC
Wiatr 2 kt od wschodnio-północny wschód
Temperatura 28°C
Wilgotność 17%
Ciśnienie 1015 hPa
Widzialność 10 km lub więcej
Brak chmur poniżej 1500 m i brak chmur cumulonimbus

METAR: OENG 302100Z 06002KT CAVOK 28/01 Q1015 NOSIG

czas: 00:26 (21:26 UTC)

Prognoza

Raport powstał 10 godziny i 26 minut temu, godzina 11:00 UTC
Prognoza ważna od 30 godzina 12 UTC do 31 godzina 18 UTC
Wiatr 15 kt od wschodnio-północny wschód
Widzialność: 8000 m
Przejściowo
od 30 godzina 12 UTC do 30 godzina 18 UTC
Widzialność: 4000 m
zawieja pyłowa
Stopniowe zmiany
od 30 godzina 18 UTC do 30 godzina 20 UTC
Wiatr 3 kt z kierunków zmiennych

TAF: OENG 301100Z 3012/3118 06015KT 8000 NSC TEMPO 3012/3018 4000 BLDU BECMG 3018/3020 VRB03KT

Obserwacja i prognoza pogody dla ponad 4000 lotnisk (raport METAR i TAF).

Dostępne stacje oznaczono żółtymi i czerwonymi punktami na mapie.

Najedź kursorem aby zobaczyć nazwę stacji.

Kliknij aby zobaczyć obserwacje i prognozy pogody.

Aby zmienić mapę: kliknij na zielony przycisk z czarnym krzyżykiem, aby powiększyć; na zielony przycisk z myślnikiem, aby pomniejszyć; na zielone strzałki, aby przejść do map sąsiednich.


METAR-TAF: